sensor_id;sensor_type;location;lat;lon;timestamp;temperature;humidity
64111;DHT22;50401;48.188;11.566;2024-01-15T00:01:55;0.53;82.26
64111;DHT22;50401;48.188;11.566;2024-01-15T00:04:20;0.54;82.23
64111;DHT22;50401;48.188;11.566;2024-01-15T00:06:45;0.50;82.36
64111;DHT22;50401;48.188;11.566;2024-01-15T00:09:11;0.54;82.49
64111;DHT22;50401;48.188;11.566;2024-01-15T00:11:36;0.54;82.58
64111;DHT22;50401;48.188;11.566;2024-01-15T00:14:02;0.53;82.72
64111;DHT22;50401;48.188;11.566;2024-01-15T00:16:28;0.41;83.11
64111;DHT22;50401;48.188;11.566;2024-01-15T00:18:54;0.33;83.48
64111;DHT22;50401;48.188;11.566;2024-01-15T00:21:19;0.19;83.79
64111;DHT22;50401;48.188;11.566;2024-01-15T00:23:44;0.20;83.86
64111;DHT22;50401;48.188;11.566;2024-01-15T00:26:10;0.20;83.83
64111;DHT22;50401;48.188;11.566;2024-01-15T00:28:38;0.13;84.12
64111;DHT22;50401;48.188;11.566;2024-01-15T00:31:05;0.19;83.85
64111;DHT22;50401;48.188;11.566;2024-01-15T00:33:30;0.16;83.87
64111;DHT22;50401;48.188;11.566;2024-01-15T00:35:56;0.24;83.51
64111;DHT22;50401;48.188;11.566;2024-01-15T00:38:21;0.17;83.60
64111;DHT22;50401;48.188;11.566;2024-01-15T00:40:46;0.12;83.58
64111;DHT22;50401;48.188;11.566;2024-01-15T00:43:12;0.14;83.51
64111;DHT22;50401;48.188;11.566;2024-01-15T00:45:37;0.24;83.11
64111;DHT22;50401;48.188;11.566;2024-01-15T00:48:03;0.31;82.23
64111;DHT22;50401;48.188;11.566;2024-01-15T00:50:29;0.41;82.05
64111;DHT22;50401;48.188;11.566;2024-01-15T00:52:54;0.43;80.88
64111;DHT22;50401;48.188;11.566;2024-01-15T00:55:20;0.26;79.89
64111;DHT22;50401;48.188;11.566;2024-01-15T00:57:45;0.07;78.88
64111;DHT22;50401;48.188;11.566;2024-01-15T01:00:11;-0.01;78.99
64111;DHT22;50401;48.188;11.566;2024-01-15T01:02:36;-0.04;78.62
64111;DHT22;50401;48.188;11.566;2024-01-15T01:05:02;-0.23;78.61
64111;DHT22;50401;48.188;11.566;2024-01-15T01:07:28;-0.28;78.71
64111;DHT22;50401;48.188;11.566;2024-01-15T01:09:55;-0.34;79.20
64111;DHT22;50401;48.188;11.566;2024-01-15T01:12:20;-0.30;78.95
64111;DHT22;50401;48.188;11.566;2024-01-15T01:14:45;-0.32;78.91
64111;DHT22;50401;48.188;11.566;2024-01-15T01:17:11;-0.26;78.88
64111;DHT22;50401;48.188;11.566;2024-01-15T01:19:36;-0.15;78.68
64111;DHT22;50401;48.188;11.566;2024-01-15T01:22:02;-0.33;78.77
64111;DHT22;50401;48.188;11.566;2024-01-15T01:24:27;-0.21;78.53
64111;DHT22;50401;48.188;11.566;2024-01-15T01:26:53;-0.32;78.60
64111;DHT22;50401;48.188;11.566;2024-01-15T01:29:18;-0.28;78.58
64111;DHT22;50401;48.188;11.566;2024-01-15T01:31:45;-0.36;78.35
64111;DHT22;50401;48.188;11.566;2024-01-15T01:34:13;-0.22;78.12
64111;DHT22;50401;48.188;11.566;2024-01-15T01:36:39;-0.44;77.50
64111;DHT22;50401;48.188;11.566;2024-01-15T01:39:04;-0.37;77.42
64111;DHT22;50401;48.188;11.566;2024-01-15T01:41:30;-0.40;76.84
64111;DHT22;50401;48.188;11.566;2024-01-15T01:43:56;-0.33;76.59
64111;DHT22;50401;48.188;11.566;2024-01-15T01:46:22;-0.21;75.77
64111;DHT22;50401;48.188;11.566;2024-01-15T01:48:48;-0.21;75.50
64111;DHT22;50401;48.188;11.566;2024-01-15T01:51:14;-0.23;74.94
64111;DHT22;50401;48.188;11.566;2024-01-15T01:53:40;-0.19;74.49
64111;DHT22;50401;48.188;11.566;2024-01-15T01:56:05;-0.14;74.42
64111;DHT22;50401;48.188;11.566;2024-01-15T01:58:32;-0.19;74.00
64111;DHT22;50401;48.188;11.566;2024-01-15T02:00:58;-0.16;74.02
64111;DHT22;50401;48.188;11.566;2024-01-15T02:03:24;-0.21;74.25
64111;DHT22;50401;48.188;11.566;2024-01-15T02:05:51;-0.29;74.58
64111;DHT22;50401;48.188;11.566;2024-01-15T02:08:18;-0.32;74.66
64111;DHT22;50401;48.188;11.566;2024-01-15T02:10:43;-0.53;74.72
64111;DHT22;50401;48.188;11.566;2024-01-15T02:13:09;-0.54;74.96
64111;DHT22;50401;48.188;11.566;2024-01-15T02:15:34;-0.74;75.27
64111;DHT22;50401;48.188;11.566;2024-01-15T02:20:26;-0.80;75.49
64111;DHT22;50401;48.188;11.566;2024-01-15T02:22:52;-0.80;75.38
64111;DHT22;50401;48.188;11.566;2024-01-15T02:25:18;-0.95;75.62
64111;DHT22;50401;48.188;11.566;2024-01-15T02:27:44;-0.88;75.66
64111;DHT22;50401;48.188;11.566;2024-01-15T02:30:13;-1.08;76.35
64111;DHT22;50401;48.188;11.566;2024-01-15T02:32:38;-0.99;76.22
64111;DHT22;50401;48.188;11.566;2024-01-15T02:35:04;-0.88;75.94
64111;DHT22;50401;48.188;11.566;2024-01-15T02:37:30;-0.77;75.58
64111;DHT22;50401;48.188;11.566;2024-01-15T02:39:55;-0.82;75.78
64111;DHT22;50401;48.188;11.566;2024-01-15T02:42:20;-0.77;75.65
64111;DHT22;50401;48.188;11.566;2024-01-15T02:44:46;-0.65;75.41
64111;DHT22;50401;48.188;11.566;2024-01-15T02:47:11;-0.67;75.36
64111;DHT22;50401;48.188;11.566;2024-01-15T02:49:37;-0.56;75.32
64111;DHT22;50401;48.188;11.566;2024-01-15T02:52:02;-0.58;75.23
64111;DHT22;50401;48.188;11.566;2024-01-15T02:54:28;-0.57;75.39
64111;DHT22;50401;48.188;11.566;2024-01-15T02:56:53;-0.63;75.67
64111;DHT22;50401;48.188;11.566;2024-01-15T02:59:19;-0.61;75.84
64111;DHT22;50401;48.188;11.566;2024-01-15T03:01:44;-0.53;75.75
64111;DHT22;50401;48.188;11.566;2024-01-15T03:04:09;-0.57;75.91
64111;DHT22;50401;48.188;11.566;2024-01-15T03:06:35;-0.52;75.97
64111;DHT22;50401;48.188;11.566;2024-01-15T03:09:00;-0.53;76.01
64111;DHT22;50401;48.188;11.566;2024-01-15T03:11:25;-0.65;76.21
64111;DHT22;50401;48.188;11.566;2024-01-15T03:13:51;-0.56;76.37
64111;DHT22;50401;48.188;11.566;2024-01-15T03:16:16;-0.52;76.42
64111;DHT22;50401;48.188;11.566;2024-01-15T03:18:42;-0.53;76.42
64111;DHT22;50401;48.188;11.566;2024-01-15T03:21:07;-0.56;76.49
64111;DHT22;50401;48.188;11.566;2024-01-15T03:23:32;-0.50;76.57
64111;DHT22;50401;48.188;11.566;2024-01-15T03:25:58;-0.52;76.35
64111;DHT22;50401;48.188;11.566;2024-01-15T03:28:23;-0.50;76.58
64111;DHT22;50401;48.188;11.566;2024-01-15T03:30:49;-0.53;76.62
64111;DHT22;50401;48.188;11.566;2024-01-15T03:33:15;-0.46;76.74
64111;DHT22;50401;48.188;11.566;2024-01-15T03:35:40;-0.40;76.53
64111;DHT22;50401;48.188;11.566;2024-01-15T03:38:05;-0.46;76.53
64111;DHT22;50401;48.188;11.566;2024-01-15T03:40:31;-0.44;76.48
64111;DHT22;50401;48.188;11.566;2024-01-15T03:42:56;-0.44;76.28
64111;DHT22;50401;48.188;11.566;2024-01-15T03:45:22;-0.43;76.19
64111;DHT22;50401;48.188;11.566;2024-01-15T03:47:47;-0.44;76.20
64111;DHT22;50401;48.188;11.566;2024-01-15T03:50:12;-0.43;76.24
64111;DHT22;50401;48.188;11.566;2024-01-15T03:52:38;-0.40;76.21
64111;DHT22;50401;48.188;11.566;2024-01-15T03:55:04;-0.39;76.14
64111;DHT22;50401;48.188;11.566;2024-01-15T03:57:30;-0.39;76.07
64111;DHT22;50401;48.188;11.566;2024-01-15T03:59:55;-0.37;76.10
64111;DHT22;50401;48.188;11.566;2024-01-15T04:02:21;-0.29;75.81
64111;DHT22;50401;48.188;11.566;2024-01-15T04:04:46;-0.25;75.73
64111;DHT22;50401;48.188;11.566;2024-01-15T04:07:11;-0.28;75.62
64111;DHT22;50401;48.188;11.566;2024-01-15T04:09:37;-0.43;76.15
64111;DHT22;50401;48.188;11.566;2024-01-15T04:12:03;-0.29;76.15
64111;DHT22;50401;48.188;11.566;2024-01-15T04:14:28;-0.29;75.73
64111;DHT22;50401;48.188;11.566;2024-01-15T04:16:54;-0.25;75.88
64111;DHT22;50401;48.188;11.566;2024-01-15T04:19:19;-0.21;75.97
64111;DHT22;50401;48.188;11.566;2024-01-15T04:21:44;-0.25;76.02
64111;DHT22;50401;48.188;11.566;2024-01-15T04:24:10;-0.28;76.04
64111;DHT22;50401;48.188;11.566;2024-01-15T04:26:35;-0.25;76.17
64111;DHT22;50401;48.188;11.566;2024-01-15T04:29:01;-0.25;76.00
64111;DHT22;50401;48.188;11.566;2024-01-15T04:31:26;-0.26;76.14
64111;DHT22;50401;48.188;11.566;2024-01-15T04:33:54;-0.21;76.05
64111;DHT22;50401;48.188;11.566;2024-01-15T04:36:20;-0.16;75.83
64111;DHT22;50401;48.188;11.566;2024-01-15T04:38:45;-0.21;75.99
64111;DHT22;50401;48.188;11.566;2024-01-15T04:41:14;-0.26;76.08
64111;DHT22;50401;48.188;11.566;2024-01-15T04:43:40;-0.23;75.86
64111;DHT22;50401;48.188;11.566;2024-01-15T04:46:06;-0.23;76.03
64111;DHT22;50401;48.188;11.566;2024-01-15T04:48:32;-0.26;76.07
64111;DHT22;50401;48.188;11.566;2024-01-15T04:50:58;-0.21;76.11
64111;DHT22;50401;48.188;11.566;2024-01-15T04:53:23;-0.16;75.97
64111;DHT22;50401;48.188;11.566;2024-01-15T04:55:48;-0.15;75.75
64111;DHT22;50401;48.188;11.566;2024-01-15T04:58:14;-0.22;75.94
64111;DHT22;50401;48.188;11.566;2024-01-15T05:00:39;-0.16;76.06
64111;DHT22;50401;48.188;11.566;2024-01-15T05:03:04;-0.25;76.19
64111;DHT22;50401;48.188;11.566;2024-01-15T05:05:30;-0.30;76.18
64111;DHT22;50401;48.188;11.566;2024-01-15T05:07:55;-0.22;76.33
64111;DHT22;50401;48.188;11.566;2024-01-15T05:10:20;-0.34;76.27
64111;DHT22;50401;48.188;11.566;2024-01-15T05:12:46;-0.28;76.53
64111;DHT22;50401;48.188;11.566;2024-01-15T05:15:11;-0.25;76.30
64111;DHT22;50401;48.188;11.566;2024-01-15T05:17:37;-0.19;76.19
64111;DHT22;50401;48.188;11.566;2024-01-15T05:20:02;-0.15;76.13
64111;DHT22;50401;48.188;11.566;2024-01-15T05:22:28;-0.12;76.34
64111;DHT22;50401;48.188;11.566;2024-01-15T05:24:53;-0.11;76.27
64111;DHT22;50401;48.188;11.566;2024-01-15T05:27:19;-0.12;76.19
64111;DHT22;50401;48.188;11.566;2024-01-15T05:29:44;-0.09;76.05
64111;DHT22;50401;48.188;11.566;2024-01-15T05:32:10;-0.05;76.07
64111;DHT22;50401;48.188;11.566;2024-01-15T05:34:35;-0.02;75.74
64111;DHT22;50401;48.188;11.566;2024-01-15T05:37:00;-0.11;76.04
64111;DHT22;50401;48.188;11.566;2024-01-15T05:39:26;-0.08;76.21
64111;DHT22;50401;48.188;11.566;2024-01-15T05:41:51;-0.11;76.34
64111;DHT22;50401;48.188;11.566;2024-01-15T05:44:16;-0.08;76.22
64111;DHT22;50401;48.188;11.566;2024-01-15T05:46:42;-0.09;76.29
64111;DHT22;50401;48.188;11.566;2024-01-15T05:49:08;-0.06;76.30
64111;DHT22;50401;48.188;11.566;2024-01-15T05:51:33;-0.12;76.24
64111;DHT22;50401;48.188;11.566;2024-01-15T05:53:59;-0.09;76.28
64111;DHT22;50401;48.188;11.566;2024-01-15T05:56:24;-0.09;76.08
64111;DHT22;50401;48.188;11.566;2024-01-15T05:58:49;-0.04;76.20
64111;DHT22;50401;48.188;11.566;2024-01-15T06:01:15;-0.05;75.89
64111;DHT22;50401;48.188;11.566;2024-01-15T06:03:40;-0.04;75.73
64111;DHT22;50401;48.188;11.566;2024-01-15T06:06:06;-0.14;75.84
64111;DHT22;50401;48.188;11.566;2024-01-15T06:08:31;-0.14;75.81
64111;DHT22;50401;48.188;11.566;2024-01-15T06:10:56;-0.12;76.00
64111;DHT22;50401;48.188;11.566;2024-01-15T06:13:22;-0.15;75.82
64111;DHT22;50401;48.188;11.566;2024-01-15T06:15:47;-0.16;75.82
64111;DHT22;50401;48.188;11.566;2024-01-15T06:18:12;-0.15;75.88
64111;DHT22;50401;48.188;11.566;2024-01-15T06:20:38;-0.08;75.55
64111;DHT22;50401;48.188;11.566;2024-01-15T06:23:04;-0.12;75.68
64111;DHT22;50401;48.188;11.566;2024-01-15T06:25:29;-0.14;75.39
64111;DHT22;50401;48.188;11.566;2024-01-15T06:27:54;-0.09;75.35
64111;DHT22;50401;48.188;11.566;2024-01-15T06:30:20;-0.06;75.14
64111;DHT22;50401;48.188;11.566;2024-01-15T06:32:45;-0.05;74.98
64111;DHT22;50401;48.188;11.566;2024-01-15T06:35:11;-0.12;74.85
64111;DHT22;50401;48.188;11.566;2024-01-15T06:37:37;-0.01;74.74
64111;DHT22;50401;48.188;11.566;2024-01-15T06:40:03;0.03;74.84
64111;DHT22;50401;48.188;11.566;2024-01-15T06:42:28;0.02;74.67
64111;DHT22;50401;48.188;11.566;2024-01-15T06:44:53;0.05;74.39
64111;DHT22;50401;48.188;11.566;2024-01-15T06:47:19;0.14;74.01
64111;DHT22;50401;48.188;11.566;2024-01-15T06:49:44;0.14;73.84
64111;DHT22;50401;48.188;11.566;2024-01-15T06:52:10;0.02;73.91
64111;DHT22;50401;48.188;11.566;2024-01-15T06:54:36;0.03;74.03
64111;DHT22;50401;48.188;11.566;2024-01-15T06:57:02;0.05;74.14
64111;DHT22;50401;48.188;11.566;2024-01-15T06:59:27;0.10;74.15
64111;DHT22;50401;48.188;11.566;2024-01-15T07:01:53;0.16;73.93
64111;DHT22;50401;48.188;11.566;2024-01-15T07:04:18;0.19;73.69
64111;DHT22;50401;48.188;11.566;2024-01-15T07:06:43;0.19;73.88
64111;DHT22;50401;48.188;11.566;2024-01-15T07:09:09;0.21;73.99
64111;DHT22;50401;48.188;11.566;2024-01-15T07:11:36;0.29;73.65
64111;DHT22;50401;48.188;11.566;2024-01-15T07:14:01;0.37;73.62
64111;DHT22;50401;48.188;11.566;2024-01-15T07:16:27;0.29;73.58
64111;DHT22;50401;48.188;11.566;2024-01-15T07:18:52;0.21;73.65
64111;DHT22;50401;48.188;11.566;2024-01-15T07:21:17;0.16;73.72
64111;DHT22;50401;48.188;11.566;2024-01-15T07:23:43;0.10;74.13
64111;DHT22;50401;48.188;11.566;2024-01-15T07:26:08;0.14;74.17
64111;DHT22;50401;48.188;11.566;2024-01-15T07:28:34;0.14;74.11
64111;DHT22;50401;48.188;11.566;2024-01-15T07:30:59;0.10;74.25
64111;DHT22;50401;48.188;11.566;2024-01-15T07:33:26;0.12;74.39
64111;DHT22;50401;48.188;11.566;2024-01-15T07:35:52;0.23;74.61
64111;DHT22;50401;48.188;11.566;2024-01-15T07:38:17;0.23;74.53
64111;DHT22;50401;48.188;11.566;2024-01-15T07:40:42;0.24;74.38
64111;DHT22;50401;48.188;11.566;2024-01-15T07:43:08;0.29;74.42
64111;DHT22;50401;48.188;11.566;2024-01-15T07:45:33;0.31;74.59
64111;DHT22;50401;48.188;11.566;2024-01-15T07:47:59;0.34;74.47
64111;DHT22;50401;48.188;11.566;2024-01-15T07:50:24;0.36;74.33
64111;DHT22;50401;48.188;11.566;2024-01-15T07:52:49;0.34;74.69
64111;DHT22;50401;48.188;11.566;2024-01-15T07:55:15;0.33;74.61
64111;DHT22;50401;48.188;11.566;2024-01-15T07:57:40;0.37;74.89
64111;DHT22;50401;48.188;11.566;2024-01-15T08:00:06;0.31;75.00
64111;DHT22;50401;48.188;11.566;2024-01-15T08:02:32;0.30;75.08
64111;DHT22;50401;48.188;11.566;2024-01-15T08:04:57;0.29;75.41
64111;DHT22;50401;48.188;11.566;2024-01-15T08:07:24;0.36;75.28
64111;DHT22;50401;48.188;11.566;2024-01-15T08:09:51;0.44;75.15
64111;DHT22;50401;48.188;11.566;2024-01-15T08:12:16;0.48;75.38
64111;DHT22;50401;48.188;11.566;2024-01-15T08:14:42;0.47;74.87
64111;DHT22;50401;48.188;11.566;2024-01-15T08:17:07;0.57;75.02
64111;DHT22;50401;48.188;11.566;2024-01-15T08:19:32;0.50;74.84
64111;DHT22;50401;48.188;11.566;2024-01-15T08:21:58;0.53;75.02
64111;DHT22;50401;48.188;11.566;2024-01-15T08:24:23;0.46;74.74
64111;DHT22;50401;48.188;11.566;2024-01-15T08:26:48;0.41;75.11
64111;DHT22;50401;48.188;11.566;2024-01-15T08:29:14;0.37;75.34
64111;DHT22;50401;48.188;11.566;2024-01-15T08:31:39;0.48;75.20
64111;DHT22;50401;48.188;11.566;2024-01-15T08:34:05;0.43;75.22
64111;DHT22;50401;48.188;11.566;2024-01-15T08:36:30;0.47;75.25
64111;DHT22;50401;48.188;11.566;2024-01-15T08:38:56;0.50;75.08
64111;DHT22;50401;48.188;11.566;2024-01-15T08:41:21;0.57;74.96
64111;DHT22;50401;48.188;11.566;2024-01-15T08:43:48;0.61;74.74
64111;DHT22;50401;48.188;11.566;2024-01-15T08:46:13;0.54;74.98
64111;DHT22;50401;48.188;11.566;2024-01-15T08:48:39;0.58;74.72
64111;DHT22;50401;48.188;11.566;2024-01-15T08:51:05;0.57;74.70
64111;DHT22;50401;48.188;11.566;2024-01-15T08:53:30;0.60;74.49
64111;DHT22;50401;48.188;11.566;2024-01-15T08:55:56;0.66;74.60
64111;DHT22;50401;48.188;11.566;2024-01-15T08:58:23;0.66;74.42
64111;DHT22;50401;48.188;11.566;2024-01-15T09:00:48;0.64;74.46
64111;DHT22;50401;48.188;11.566;2024-01-15T09:03:14;0.65;74.57
64111;DHT22;50401;48.188;11.566;2024-01-15T09:05:39;0.61;74.45
64111;DHT22;50401;48.188;11.566;2024-01-15T09:08:06;0.68;74.85
64111;DHT22;50401;48.188;11.566;2024-01-15T09:10:31;0.71;74.81
64111;DHT22;50401;48.188;11.566;2024-01-15T09:12:56;0.75;74.98
64111;DHT22;50401;48.188;11.566;2024-01-15T09:15:22;0.76;75.01
64111;DHT22;50401;48.188;11.566;2024-01-15T09:17:48;0.73;75.34
64111;DHT22;50401;48.188;11.566;2024-01-15T09:20:13;0.81;74.55
64111;DHT22;50401;48.188;11.566;2024-01-15T09:22:39;0.86;74.41
64111;DHT22;50401;48.188;11.566;2024-01-15T09:25:08;0.75;74.70
64111;DHT22;50401;48.188;11.566;2024-01-15T09:27:35;0.78;74.62
64111;DHT22;50401;48.188;11.566;2024-01-15T09:30:00;0.79;74.61
64111;DHT22;50401;48.188;11.566;2024-01-15T09:32:26;0.81;74.77
64111;DHT22;50401;48.188;11.566;2024-01-15T09:34:51;0.85;74.58
64111;DHT22;50401;48.188;11.566;2024-01-15T09:37:16;0.97;74.12
64111;DHT22;50401;48.188;11.566;2024-01-15T09:39:42;1.04;73.86
64111;DHT22;50401;48.188;11.566;2024-01-15T09:42:07;0.95;74.09
64111;DHT22;50401;48.188;11.566;2024-01-15T09:44:34;0.96;74.05
64111;DHT22;50401;48.188;11.566;2024-01-15T09:47:00;0.97;73.49
64111;DHT22;50401;48.188;11.566;2024-01-15T09:49:26;0.95;73.78
64111;DHT22;50401;48.188;11.566;2024-01-15T09:51:51;1.00;73.95
64111;DHT22;50401;48.188;11.566;2024-01-15T09:54:17;1.04;73.70
64111;DHT22;50401;48.188;11.566;2024-01-15T09:56:46;1.03;73.58
64111;DHT22;50401;48.188;11.566;2024-01-15T09:59:15;1.19;73.45
64111;DHT22;50401;48.188;11.566;2024-01-15T10:01:41;1.04;73.00
64111;DHT22;50401;48.188;11.566;2024-01-15T10:04:06;1.14;72.46
64111;DHT22;50401;48.188;11.566;2024-01-15T10:06:32;1.26;72.15
64111;DHT22;50401;48.188;11.566;2024-01-15T10:08:57;1.14;72.33
64111;DHT22;50401;48.188;11.566;2024-01-15T10:11:26;1.22;72.28
64111;DHT22;50401;48.188;11.566;2024-01-15T10:13:52;1.24;72.13
64111;DHT22;50401;48.188;11.566;2024-01-15T10:16:19;1.27;72.07
64111;DHT22;50401;48.188;11.566;2024-01-15T10:18:44;1.30;71.93
64111;DHT22;50401;48.188;11.566;2024-01-15T10:21:10;1.30;71.83
64111;DHT22;50401;48.188;11.566;2024-01-15T10:23:35;1.35;71.88
64111;DHT22;50401;48.188;11.566;2024-01-15T10:26:02;1.42;71.12
64111;DHT22;50401;48.188;11.566;2024-01-15T10:28:28;1.42;70.98
64111;DHT22;50401;48.188;11.566;2024-01-15T10:30:57;1.42;71.18
64111;DHT22;50401;48.188;11.566;2024-01-15T10:33:23;1.41;71.06
64111;DHT22;50401;48.188;11.566;2024-01-15T10:36:00;1.49;71.16
64111;DHT22;50401;48.188;11.566;2024-01-15T10:38:26;1.41;71.20
64111;DHT22;50401;48.188;11.566;2024-01-15T10:40:52;1.56;70.82
64111;DHT22;50401;48.188;11.566;2024-01-15T10:43:18;1.77;73.72
64111;DHT22;50401;48.188;11.566;2024-01-15T10:45:45;1.96;71.57
64111;DHT22;50401;48.188;11.566;2024-01-15T10:48:10;2.10;69.74
64111;DHT22;50401;48.188;11.566;2024-01-15T10:50:36;2.10;69.21
64111;DHT22;50401;48.188;11.566;2024-01-15T10:53:02;2.09;69.24
64111;DHT22;50401;48.188;11.566;2024-01-15T10:55:29;2.07;69.06
64111;DHT22;50401;48.188;11.566;2024-01-15T10:57:57;2.14;69.01
64111;DHT22;50401;48.188;11.566;2024-01-15T11:00:22;2.18;69.31
64111;DHT22;50401;48.188;11.566;2024-01-15T11:02:48;2.25;69.00
64111;DHT22;50401;48.188;11.566;2024-01-15T11:05:13;2.25;69.28
64111;DHT22;50401;48.188;11.566;2024-01-15T11:07:39;2.39;68.84
64111;DHT22;50401;48.188;11.566;2024-01-15T11:10:06;2.39;68.94
64111;DHT22;50401;48.188;11.566;2024-01-15T11:12:35;2.41;68.76
64111;DHT22;50401;48.188;11.566;2024-01-15T11:15:03;2.46;68.67
64111;DHT22;50401;48.188;11.566;2024-01-15T11:17:59;2.41;69.40
64111;DHT22;50401;48.188;11.566;2024-01-15T11:20:26;2.42;69.05
64111;DHT22;50401;48.188;11.566;2024-01-15T11:22:51;2.55;69.12
64111;DHT22;50401;48.188;11.566;2024-01-15T11:25:20;2.48;69.47
64111;DHT22;50401;48.188;11.566;2024-01-15T11:27:47;2.44;69.53
64111;DHT22;50401;48.188;11.566;2024-01-15T11:30:25;2.21;69.73
64111;DHT22;50401;48.188;11.566;2024-01-15T11:32:50;2.03;70.40
64111;DHT22;50401;48.188;11.566;2024-01-15T11:35:16;1.86;70.90
64111;DHT22;50401;48.188;11.566;2024-01-15T11:40:18;1.89;71.77
64111;DHT22;50401;48.188;11.566;2024-01-15T11:42:45;2.00;71.49
64111;DHT22;50401;48.188;11.566;2024-01-15T11:45:13;2.00;71.54
64111;DHT22;50401;48.188;11.566;2024-01-15T11:50:30;2.18;71.17
64111;DHT22;50401;48.188;11.566;2024-01-15T11:52:59;2.25;70.67
64111;DHT22;50401;48.188;11.566;2024-01-15T11:55:38;2.21;70.11
64111;DHT22;50401;48.188;11.566;2024-01-15T11:58:10;2.14;70.58
64111;DHT22;50401;48.188;11.566;2024-01-15T12:00:43;2.15;70.58
64111;DHT22;50401;48.188;11.566;2024-01-15T12:03:09;2.11;69.98
64111;DHT22;50401;48.188;11.566;2024-01-15T12:05:37;2.11;70.13
64111;DHT22;50401;48.188;11.566;2024-01-15T12:08:02;2.18;69.98
64111;DHT22;50401;48.188;11.566;2024-01-15T12:10:28;2.21;69.97
64111;DHT22;50401;48.188;11.566;2024-01-15T12:13:05;2.31;70.38
64111;DHT22;50401;48.188;11.566;2024-01-15T12:15:31;2.41;69.39
64111;DHT22;50401;48.188;11.566;2024-01-15T12:17:59;2.45;69.30
64111;DHT22;50401;48.188;11.566;2024-01-15T12:20:27;2.56;69.08
64111;DHT22;50401;48.188;11.566;2024-01-15T12:22:53;2.69;67.96
64111;DHT22;50401;48.188;11.566;2024-01-15T12:25:19;2.83;67.29
64111;DHT22;50401;48.188;11.566;2024-01-15T12:27:44;2.76;67.10
64111;DHT22;50401;48.188;11.566;2024-01-15T12:30:11;2.81;66.92
64111;DHT22;50401;48.188;11.566;2024-01-15T12:32:37;2.75;66.79
64111;DHT22;50401;48.188;11.566;2024-01-15T12:35:02;2.75;66.78
64111;DHT22;50401;48.188;11.566;2024-01-15T12:37:29;2.76;66.84
64111;DHT22;50401;48.188;11.566;2024-01-15T12:39:55;2.72;67.09
64111;DHT22;50401;48.188;11.566;2024-01-15T12:42:21;2.75;66.47
64111;DHT22;50401;48.188;11.566;2024-01-15T12:44:47;2.70;66.08
64111;DHT22;50401;48.188;11.566;2024-01-15T12:47:12;2.66;66.83
64111;DHT22;50401;48.188;11.566;2024-01-15T12:49:38;2.80;66.35
64111;DHT22;50401;48.188;11.566;2024-01-15T12:52:08;2.94;66.21
64111;DHT22;50401;48.188;11.566;2024-01-15T12:54:33;3.04;66.53
64111;DHT22;50401;48.188;11.566;2024-01-15T12:56:59;3.05;67.10
64111;DHT22;50401;48.188;11.566;2024-01-15T12:59:24;3.21;66.53
64111;DHT22;50401;48.188;11.566;2024-01-15T13:01:49;3.23;66.19
64111;DHT22;50401;48.188;11.566;2024-01-15T13:04:22;3.12;66.47
64111;DHT22;50401;48.188;11.566;2024-01-15T13:06:49;3.03;66.87
64111;DHT22;50401;48.188;11.566;2024-01-15T13:09:15;2.98;67.51
64111;DHT22;50401;48.188;11.566;2024-01-15T13:11:40;2.94;67.99
64111;DHT22;50401;48.188;11.566;2024-01-15T13:14:05;2.90;68.35
64111;DHT22;50401;48.188;11.566;2024-01-15T13:16:31;2.91;68.55
64111;DHT22;50401;48.188;11.566;2024-01-15T13:18:56;2.88;68.57
64111;DHT22;50401;48.188;11.566;2024-01-15T13:21:22;2.94;68.80
64111;DHT22;50401;48.188;11.566;2024-01-15T13:23:48;2.88;68.95
64111;DHT22;50401;48.188;11.566;2024-01-15T13:26:13;2.83;69.25
64111;DHT22;50401;48.188;11.566;2024-01-15T13:28:39;2.84;69.15
64111;DHT22;50401;48.188;11.566;2024-01-15T13:31:04;2.69;69.80
64111;DHT22;50401;48.188;11.566;2024-01-15T13:33:30;2.70;69.96
64111;DHT22;50401;48.188;11.566;2024-01-15T13:35:55;2.62;69.88
64111;DHT22;50401;48.188;11.566;2024-01-15T13:38:21;2.66;70.19
64111;DHT22;50401;48.188;11.566;2024-01-15T13:40:46;2.66;70.35
64111;DHT22;50401;48.188;11.566;2024-01-15T13:43:12;2.64;70.31
64111;DHT22;50401;48.188;11.566;2024-01-15T13:45:39;2.63;70.75
64111;DHT22;50401;48.188;11.566;2024-01-15T13:48:05;2.57;70.88
64111;DHT22;50401;48.188;11.566;2024-01-15T13:50:31;2.56;71.15
64111;DHT22;50401;48.188;11.566;2024-01-15T13:52:57;2.56;71.41
64111;DHT22;50401;48.188;11.566;2024-01-15T13:55:22;2.56;71.21
64111;DHT22;50401;48.188;11.566;2024-01-15T13:57:48;2.53;71.30
64111;DHT22;50401;48.188;11.566;2024-01-15T14:00:14;2.50;71.37
64111;DHT22;50401;48.188;11.566;2024-01-15T14:02:44;2.50;70.93
64111;DHT22;50401;48.188;11.566;2024-01-15T14:05:09;2.42;71.20
64111;DHT22;50401;48.188;11.566;2024-01-15T14:07:35;2.45;71.24
64111;DHT22;50401;48.188;11.566;2024-01-15T14:10:00;2.42;71.51
64111;DHT22;50401;48.188;11.566;2024-01-15T14:12:25;2.41;72.08
64111;DHT22;50401;48.188;11.566;2024-01-15T14:14:51;2.41;72.92
64111;DHT22;50401;48.188;11.566;2024-01-15T14:17:17;2.41;73.57
64111;DHT22;50401;48.188;11.566;2024-01-15T14:19:43;2.31;74.97
64111;DHT22;50401;48.188;11.566;2024-01-15T14:22:08;2.22;75.94
64111;DHT22;50401;48.188;11.566;2024-01-15T14:24:33;2.24;76.62
64111;DHT22;50401;48.188;11.566;2024-01-15T14:26:59;2.27;76.55
64111;DHT22;50401;48.188;11.566;2024-01-15T14:29:25;2.32;76.18
64111;DHT22;50401;48.188;11.566;2024-01-15T14:31:52;2.22;76.31
64111;DHT22;50401;48.188;11.566;2024-01-15T14:34:17;2.24;76.07
64111;DHT22;50401;48.188;11.566;2024-01-15T14:36:43;2.24;76.20
64111;DHT22;50401;48.188;11.566;2024-01-15T14:39:08;2.29;76.67
64111;DHT22;50401;48.188;11.566;2024-01-15T14:41:35;2.24;76.81
64111;DHT22;50401;48.188;11.566;2024-01-15T14:44:00;2.21;77.23
64111;DHT22;50401;48.188;11.566;2024-01-15T14:46:26;2.21;77.24
64111;DHT22;50401;48.188;11.566;2024-01-15T14:48:52;2.21;77.45
64111;DHT22;50401;48.188;11.566;2024-01-15T14:51:18;2.22;77.49
64111;DHT22;50401;48.188;11.566;2024-01-15T14:53:43;2.13;77.18
64111;DHT22;50401;48.188;11.566;2024-01-15T14:56:09;2.09;77.31
64111;DHT22;50401;48.188;11.566;2024-01-15T14:58:34;2.10;77.14
64111;DHT22;50401;48.188;11.566;2024-01-15T15:01:00;2.10;76.68
64111;DHT22;50401;48.188;11.566;2024-01-15T15:03:25;2.10;75.95
64111;DHT22;50401;48.188;11.566;2024-01-15T15:05:51;2.07;75.76
64111;DHT22;50401;48.188;11.566;2024-01-15T15:08:16;2.07;75.37
64111;DHT22;50401;48.188;11.566;2024-01-15T15:10:42;2.01;74.90
64111;DHT22;50401;48.188;11.566;2024-01-15T15:13:08;2.03;74.55
64111;DHT22;50401;48.188;11.566;2024-01-15T15:15:35;2.01;75.08
64111;DHT22;50401;48.188;11.566;2024-01-15T15:18:00;1.99;75.06
64111;DHT22;50401;48.188;11.566;2024-01-15T15:20:25;1.93;74.84
64111;DHT22;50401;48.188;11.566;2024-01-15T15:22:51;1.93;75.41
64111;DHT22;50401;48.188;11.566;2024-01-15T15:25:20;1.89;75.37